Vlore, Albania
Current Conditions -  °F | °C
As of 11:50 AM on Friday 31 Oct 2014 (Local Time) from LGKR Reporting Station
Scattered Clouds Scattered Clouds  
Wind Chill: 70°   Ceiling: Unl
Heat Index: 70°   Visibility: 6mi
Dew Point: 48°   Wind: 0mph
Humidity: 46%   Direction: NA
Pressure: 30.06"   Gusts: NA
Location:  40.47°N, 19.49°E
Report Text: LGKR 310950Z 00000KT 9999 FEW025 SCT180 21/09 Q1018 NOSIG
Loading
Personal Weather Stations






























Interactive Weather Map
Tropical Storm Tracking
New forecast layout! Learn more

10-Day Weather Forecast

Advertisements
Track Severe Weather on mobile